Time;durP1;ratioP1;P1;durP2;ratioP2;P2;SDS_P1;SDS_P2;PMS_P1;PMS_P2;Temp;Humidity;BMP_temperature;BMP_pressure;BME280_temperature;BME280_humidity;BME280_pressure;Samples;Min_cycle;Max_cycle;Signal;HPM_P1;HPM_P2
2022/04/15 00:06:11;;;;;;;61.30;33.00;;;;;;;12.36;52.38;98691.37;433154;1269;112482;-45
2022/04/15 00:16:17;;;;;;;58.10;36.10;;;;;;;12.20;52.85;98694.48;433081;1270;108681;-42
2022/04/15 00:26:23;;;;;;;61.00;33.50;;;;;;;12.07;53.63;98707.96;433188;1270;99424;-46
2022/04/15 00:36:30;;;;;;;52.80;31.50;;;;;;;12.00;55.57;98706.77;433066;1270;108029;-43
2022/04/15 00:46:37;;;;;;;48.60;30.20;;;;;;;11.93;57.06;98708.72;433161;1270;99349;-43
2022/04/15 01:06:47;;;;;;;38.60;23.30;;;;;;;11.91;58.44;98726.02;433130;1270;109472;-41
2022/04/15 01:16:54;;;;;;;38.00;21.90;;;;;;;11.87;59.33;98725.31;433097;1270;99284;-41
2022/04/15 01:27:02;;;;;;;31.20;19.30;;;;;;;11.84;60.40;98722.23;433811;1260;108824;-43
2022/04/15 01:37:09;;;;;;;24.60;16.70;;;;;;;11.84;61.39;98733.08;433027;1271;99267;-45
2022/04/15 01:47:17;;;;;;;21.70;14.90;;;;;;;11.86;61.38;98732.80;433144;1269;112418;-42
2022/04/15 01:57:25;;;;;;;23.30;14.90;;;;;;;11.83;62.17;98742.80;432963;1271;109266;-44
2022/04/15 02:07:32;;;;;;;17.90;12.40;;;;;;;11.78;62.70;98758.94;432956;1270;99270;-44
2022/04/15 02:17:39;;;;;;;18.40;12.80;;;;;;;11.71;62.59;98770.84;432693;1270;108917;-42
2022/04/15 02:27:46;;;;;;;20.50;12.00;;;;;;;11.64;62.96;98779.05;432442;1271;98883;-44
2022/04/15 02:37:54;;;;;;;16.70;10.70;;;;;;;11.47;65.32;98787.90;432652;1270;112467;-45
2022/04/15 02:48:01;;;;;;;20.10;12.00;;;;;;;11.20;66.87;98790.50;432661;1269;109036;-41
2022/04/15 02:58:08;;;;;;;16.10;11.50;;;;;;;10.99;67.15;98795.64;432731;1271;98871;-42
2022/04/15 03:18:21;;;;;;;29.40;19.20;;;;;;;10.82;68.10;98819.38;432608;1270;98083;-41
2022/04/15 03:28:28;;;;;;;18.20;11.50;;;;;;;10.77;68.37;98821.28;432773;1271;112851;-47
2022/04/15 03:38:35;;;;;;;16.70;11.60;;;;;;;10.76;68.56;98815.65;432715;1269;108945;-45
2022/04/15 03:48:42;;;;;;;18.60;11.50;;;;;;;10.81;68.86;98791.27;432860;1270;98853;-42
2022/04/15 03:58:49;;;;;;;46.90;38.20;;;;;;;10.81;68.87;98798.04;432708;1270;108964;-43
2022/04/15 04:08:57;;;;;;;33.40;20.80;;;;;;;10.87;69.32;98775.63;432678;1269;99270;-40
2022/04/15 04:19:03;;;;;;;20.50;14.40;;;;;;;10.85;69.43;98768.02;432703;1270;112343;-44
2022/04/15 04:29:10;;;;;;;20.60;12.90;;;;;;;10.87;69.76;98776.45;432619;1269;108842;-41
2022/04/15 04:39:18;;;;;;;22.20;15.30;;;;;;;10.91;69.95;98781.20;432675;1270;98015;-45
2022/04/15 04:49:26;;;;;;;20.10;15.50;;;;;;;11.00;70.13;98783.54;432687;1270;108988;-44
2022/04/15 04:59:33;;;;;;;32.00;20.70;;;;;;;10.92;70.27;98785.00;432699;1270;99297;-42
2022/04/15 05:09:42;;;;;;;23.90;15.70;;;;;;;10.89;71.55;98783.06;432707;1269;112599;-46
2022/04/15 05:19:48;;;;;;;;;;;;;;;10.78;72.99;98802.99;432847;1271;109135;-45
2022/04/15 05:29:55;;;;;;;24.30;17.30;;;;;;;10.71;73.27;98801.77;432899;1270;98024;-44
2022/04/15 05:40:02;;;;;;;23.40;15.90;;;;;;;10.82;73.40;98807.42;432584;1271;108159;-43
2022/04/15 05:50:10;;;;;;;20.40;13.20;;;;;;;10.94;73.13;98828.25;432615;1269;99277;-43
2022/04/15 06:00:17;;;;;;;20.90;15.30;;;;;;;10.97;73.57;98828.88;432739;1269;112442;-43
2022/04/15 06:10:24;;;;;;;19.20;12.70;;;;;;;11.04;73.64;98831.21;432535;1270;108568;-42
2022/04/15 06:20:32;;;;;;;13.30;9.80;;;;;;;11.03;74.12;98834.41;432680;1270;98001;-42
2022/04/15 06:30:39;;;;;;;15.50;10.40;;;;;;;11.01;74.65;98838.60;432695;1270;108869;-45
2022/04/15 06:40:46;;;;;;;12.70;9.90;;;;;;;11.12;74.50;98849.09;432815;1270;98035;-42
2022/04/15 06:50:54;;;;;;;11.50;8.70;;;;;;;11.30;74.67;98852.79;432986;1270;111209;-42
2022/04/15 07:01:01;;;;;;;13.30;10.60;;;;;;;11.63;74.64;98852.64;432785;1270;108799;-43
2022/04/15 07:11:09;;;;;;;13.90;8.20;;;;;;;11.79;74.78;98850.90;432911;1270;99275;-44
2022/04/15 07:21:18;;;;;;;9.10;7.40;;;;;;;11.71;75.87;98857.97;433000;1270;108903;-44
2022/04/15 07:31:26;;;;;;;14.60;7.40;;;;;;;11.83;76.53;98864.09;432934;1270;99258;-41
2022/04/15 07:41:36;;;;;;;8.20;6.00;;;;;;;12.15;76.67;98875.55;433055;1270;112413;-45
2022/04/15 07:51:44;;;;;;;11.00;7.40;;;;;;;12.52;76.21;98878.99;433084;1269;109189;-45
2022/04/15 08:01:52;;;;;;;12.80;7.50;;;;;;;12.70;75.59;98880.55;433120;1269;99385;-44
2022/04/15 08:12:00;;;;;;;7.90;6.80;;;;;;;12.75;75.54;98881.80;433238;1269;108790;-44
2022/04/15 08:32:14;;;;;;;7.70;6.10;;;;;;;12.78;75.08;98894.70;433109;1269;112417;-41
2022/04/15 08:42:22;;;;;;;9.00;5.10;;;;;;;13.60;75.11;98890.02;432380;1269;107435;-44
2022/04/15 08:52:31;;;;;;;10.50;6.00;;;;;;;14.05;74.07;98882.75;433052;1269;99284;-45
2022/04/15 09:02:38;;;;;;;5.70;4.90;;;;;;;14.35;72.88;98881.91;433133;1270;109846;-43
2022/04/15 09:12:53;;;;;;;9.00;5.30;;;;;;;14.76;71.78;98879.42;432708;1270;491066;-41
2022/04/15 09:33:18;;;;;;;6.10;5.10;;;;;;;14.92;69.76;98872.04;433261;1270;108767;-41
2022/04/15 09:43:27;;;;;;;9.20;6.40;;;;;;;14.88;68.93;98866.69;433208;1269;99217;-41
2022/04/15 09:53:35;;;;;;;11.50;7.40;;;;;;;14.59;68.80;98866.73;433154;1270;108707;-46
2022/04/15 10:03:46;;;;;;;11.80;7.90;;;;;;;14.11;69.47;98873.80;432953;1270;99297;-43
2022/04/15 10:13:55;;;;;;;12.50;10.10;;;;;;;14.17;70.51;98868.44;433275;1270;112574;-44
2022/04/15 10:44:25;;;;;;;15.00;8.90;;;;;;;13.62;70.19;98877.63;433157;1270;109285;-45
2022/04/15 10:54:34;;;;;;;17.10;10.10;;;;;;;13.83;71.15;98871.13;433119;1269;99257;-40
2022/04/15 11:04:42;;;;;;;14.40;11.80;;;;;;;14.40;71.45;98860.44;433089;1270;112440;-41
2022/04/15 11:14:49;;;;;;;14.40;10.70;;;;;;;14.16;71.16;98856.09;432979;1270;108858;-43
2022/04/15 11:45:14;;;;;;;7.40;5.10;;;;;;;15.41;69.85;98828.48;433123;1270;98433;-45
2022/04/15 11:55:20;;;;;;;7.60;4.70;;;;;;;15.64;67.12;98818.48;433195;1270;112749;-45
2022/04/15 12:05:30;;;;;;;6.30;4.00;;;;;;;15.64;65.83;98818.11;433030;1268;109343;-45
2022/04/15 12:15:38;;;;;;;12.20;7.70;;;;;;;15.36;63.29;98824.11;433154;1270;99330;-43
2022/04/15 12:26:09;;;;;;;10.30;7.70;;;;;;;15.04;63.29;98822.71;433310;1270;108806;-41
2022/04/15 12:36:17;;;;;;;11.70;5.30;;;;;;;14.98;63.91;98836.45;433270;1269;99135;-44
2022/04/15 12:46:29;;;;;;;3.40;3.10;;;;;;;13.32;65.60;98896.13;433186;1270;112419;-42
2022/04/15 12:56:37;;;;;;;7.70;5.10;;;;;;;11.84;68.76;98896.95;433127;1270;108889;-42
2022/04/15 13:06:45;;;;;;;11.60;7.10;;;;;;;11.32;71.27;98896.16;433113;1270;98364;-41
2022/04/15 13:16:52;;;;;;;8.10;6.50;;;;;;;11.63;72.36;98889.96;432920;1270;107610;-45
2022/04/15 13:26:59;;;;;;;9.70;6.20;;;;;;;12.20;73.38;98876.64;433134;1270;99295;-48
2022/04/15 13:37:04;;;;;;;5.30;4.00;;;;;;;12.52;73.52;98863.35;433278;1270;112425;-45
2022/04/15 13:47:12;;;;;;;6.20;4.60;;;;;;;12.56;72.33;98860.50;432493;1270;108792;-41
2022/04/15 13:57:18;;;;;;;7.20;5.70;;;;;;;12.60;71.72;98863.92;433007;1270;98561;-40
2022/04/15 14:07:26;;;;;;;16.80;11.30;;;;;;;12.73;71.32;98865.59;432914;1271;108445;-42
2022/04/15 14:17:33;;;;;;;10.00;7.00;;;;;;;13.31;70.98;98863.52;432953;1271;99259;-44
2022/04/15 14:27:40;;;;;;;11.00;6.80;;;;;;;13.28;70.20;98854.68;432964;1269;112465;-42
2022/04/15 14:37:45;;;;;;;17.40;12.10;;;;;;;13.01;69.83;98858.17;432846;1269;108517;-44
2022/04/15 14:47:52;;;;;;;33.60;22.80;;;;;;;12.89;69.90;98853.73;432975;1270;98825;-42
2022/04/15 14:57:59;;;;;;;22.60;16.00;;;;;;;12.72;69.92;98868.72;433054;1270;109624;-45
2022/04/15 15:08:04;;;;;;;13.30;8.60;;;;;;;12.14;70.64;98877.95;432935;1270;98255;-42
2022/04/15 15:18:11;;;;;;;10.40;8.40;;;;;;;11.79;71.25;98882.33;433121;1271;111465;-40
2022/04/15 15:38:57;;;;;;;16.10;9.80;;;;;;;11.32;71.43;98898.90;432969;1270;99277;-39
2022/04/15 15:49:04;;;;;;;17.10;9.50;;;;;;;11.30;72.09;98899.98;432962;1270;109087;-44
2022/04/15 15:59:13;;;;;;;19.60;10.50;;;;;;;11.19;72.20;98906.80;433061;1270;99293;-41
2022/04/15 16:09:20;;;;;;;21.90;14.80;;;;;;;11.01;72.78;98911.98;433059;1269;112422;-41
2022/04/15 16:19:27;;;;;;;21.10;13.90;;;;;;;10.84;73.11;98921.42;432951;1270;108771;-43
2022/04/15 16:29:36;;;;;;;24.90;15.60;;;;;;;10.67;73.12;98927.88;432873;1270;99277;-41
2022/04/15 16:39:42;;;;;;;23.00;16.40;;;;;;;10.49;72.96;98927.04;433080;1270;108958;-41
2022/04/15 16:49:49;;;;;;;20.20;12.90;;;;;;;10.43;73.15;98937.24;432931;1270;99359;-40
2022/04/15 16:59:57;;;;;;;19.40;12.20;;;;;;;10.38;73.09;98929.38;433159;1270;112452;-44
2022/04/15 17:20:13;;;;;;;28.10;17.30;;;;;;;10.15;73.60;98934.42;433090;1270;98043;-43
2022/04/15 17:30:21;;;;;;;28.60;17.50;;;;;;;10.06;73.87;98928.29;432945;1270;108781;-42
2022/04/15 17:40:28;;;;;;;26.00;18.20;;;;;;;10.02;73.90;98939.95;432978;1269;99244;-43
2022/04/15 17:50:36;;;;;;;26.10;16.30;;;;;;;9.97;73.91;98945.70;432872;1269;112418;-41
2022/04/15 18:00:44;;;;;;;24.40;17.40;;;;;;;9.85;74.21;98954.33;433140;1270;108773;-40
2022/04/15 18:10:52;;;;;;;19.40;14.50;;;;;;;9.68;74.63;98963.00;433098;1269;99252;-44
2022/04/15 18:20:59;;;;;;;17.90;10.20;;;;;;;9.65;75.09;98976.83;432826;1270;108136;-43
2022/04/15 18:31:06;;;;;;;15.10;10.40;;;;;;;9.54;75.43;98984.84;432968;1270;99251;-41
2022/04/15 18:41:13;;;;;;;15.60;11.60;;;;;;;9.42;75.55;98995.19;433069;1270;112303;-45
2022/04/15 19:01:45;;;;;;;25.60;14.20;;;;;;;9.01;75.12;99013.84;433080;1271;98040;-41
2022/04/15 19:11:52;;;;;;;19.20;11.70;;;;;;;8.68;75.47;99008.91;433075;1270;108847;-46
2022/04/15 19:22:01;;;;;;;18.50;11.60;;;;;;;8.51;75.59;99012.20;433187;1269;99262;-41
2022/04/15 19:32:10;;;;;;;20.00;11.70;;;;;;;8.45;75.86;99016.58;433220;1270;112379;-43
2022/04/15 19:42:17;;;;;;;27.50;16.10;;;;;;;8.45;76.04;99017.96;433107;1270;108756;-40
2022/04/15 19:52:24;;;;;;;15.50;11.10;;;;;;;8.47;76.35;99012.80;433155;1270;99244;-43
2022/04/15 20:02:30;;;;;;;15.80;11.50;;;;;;;8.42;76.77;99006.98;433006;1270;107761;-43
2022/04/15 20:12:37;;;;;;;22.50;14.60;;;;;;;8.40;77.02;99006.30;433077;1269;98096;-41
2022/04/15 20:22:45;;;;;;;17.10;12.70;;;;;;;8.37;77.27;99001.29;433019;1270;112445;-47
2022/04/15 20:42:59;;;;;;;20.70;14.00;;;;;;;8.43;77.11;99010.35;433019;1271;99347;-45
2022/04/15 20:53:09;;;;;;;23.00;13.70;;;;;;;8.51;77.29;99009.31;433237;1271;108842;-43
2022/04/15 21:03:14;;;;;;;17.10;13.50;;;;;;;8.50;77.28;99007.17;433129;1271;99285;-43
2022/04/15 21:13:23;;;;;;;20.40;14.70;;;;;;;8.43;77.45;99004.80;432609;1271;687881;-41
2022/04/15 21:23:31;;;;;;;27.40;17.10;;;;;;;8.36;77.43;99004.33;433117;1271;108667;-43
2022/04/15 21:33:38;;;;;;;23.50;16.00;;;;;;;8.31;77.86;98997.91;433083;1269;98959;-41
2022/04/15 21:43:46;;;;;;;18.90;13.40;;;;;;;8.30;77.98;98995.92;433176;1269;108792;-42
2022/04/15 21:53:52;;;;;;;14.50;11.20;;;;;;;8.26;78.41;98997.90;433062;1270;99261;-41
2022/04/15 22:14:07;;;;;;;8.60;7.30;;;;;;;7.50;81.15;99019.27;432957;1270;109084;-42
2022/04/15 22:24:15;;;;;;;11.30;6.80;;;;;;;7.15;81.64;99033.06;432846;1271;99356;-41
2022/04/15 22:34:21;;;;;;;12.50;7.80;;;;;;;6.91;82.07;99049.87;432851;1269;108736;-43
2022/04/15 22:44:28;;;;;;;9.90;6.70;;;;;;;6.70;82.01;99063.89;432636;1270;99260;-41
2022/04/15 23:05:02;;;;;;;8.10;5.40;;;;;;;6.48;82.44;99083.56;432646;1269;108819;-43
2022/04/15 23:15:11;;;;;;;8.70;6.50;;;;;;;6.42;82.40;99093.30;432574;1270;99288;-45
2022/04/15 23:25:19;;;;;;;13.60;7.90;;;;;;;6.29;82.77;99100.98;432518;1271;108785;-45
2022/04/15 23:35:26;;;;;;;11.40;7.90;;;;;;;6.16;83.25;99110.67;432731;1269;99280;-42
2022/04/15 23:55:40;;;;;;;7.80;5.90;;;;;;;6.03;83.27;99117.70;432686;1271;107753;-42
